メインページ
METAR-TAF:

METAR-TAF

空港 :

カラチ, パキスタン

ジンナー国際空港

緯度: 24-54N, 経度: 067-08E, 海抜: 21m

現時点の気象観測

当レポートは16分前の01:25(UTC)に作成
北東の風 3kt
気温 12°C
湿度 67%
気圧 1015 hPa
視程: 4000m

METAR: OPKC 180125Z 04003KT 4000 FU NSC 12/06 Q1015 NOSIG

時間: 06:41 (01:41 UTC)

予報

当レポートは4時間11分前の21:30(UTC)に作成
予報は18日の 00時(UTC)から 19日の 06時(UTC)まで有効
視程: 6000m
18日の 01時(UTC)から 18日の 05時(UTC)まで一時的に
変向風 3kt
視程: 2000m
18日の 1500時(UTC)から
北/北東の風 5kt、最大15ktの突風を伴う
視程: 5000m
煙霧
19日の 01時(UTC)から 19日の 05時(UTC)まで一時的に
北/北東の風 5kt
視程: 3000m

TAF: OPKC 172130Z 1800/1906 0508G18KT 6000 NSC TEMPO 1801/1805 VRB03KT 2000 BR NSC FM181500 03005G15KT 5000 HZ NSC TEMPO 1901/1905 03005KT 3000 FU NSC

4,000以上の空港の気象観測と天気予報(METAR報とTAF報)

利用可能な観測所は地図上に黄色い丸と赤い丸で示す。

丸の上にカーソルを重ねると観測所名を参照できる。

次にクリックすると気象観測と天気予報を参照できる。

マップの切り替え:黒色「×」印の緑ボタンをクリックして拡大、「-」印の緑ボタンをクリックして縮小、緑色の三角印をクリックして隣りの地図に切り替え


METAR-TAF: